Time,TemperatureF,DewpointF,PressureIn,WindDirection,WindDirectionDegrees,WindSpeedMPH,WindSpeedGustMPH,Humidity,HourlyPrecipIn,Conditions,Clouds,dailyrainin,SoftwareType,DateUTC
2013-02-14 00:00:00,24.9,21.3,29.94,South,169,0.0,0.0,86,0.00,,,0.00,Wunderground v.1.15,2013-02-14 05:00:00,
2013-02-14 00:04:00,24.5,20.9,29.94,South,169,0.0,0.0,86,0.00,,,0.00,Wunderground v.1.15,2013-02-14 05:04:00,
2013-02-14 00:09:00,24.2,20.9,29.94,South,169,0.0,0.0,87,0.00,,,0.00,Wunderground v.1.15,2013-02-14 05:09:00,
2013-02-14 00:14:00,24.1,21.1,29.94,South,169,0.0,0.0,88,0.00,,,0.00,Wunderground v.1.15,2013-02-14 05:14:00,
2013-02-14 00:20:00,24.1,21.1,29.94,South,169,0.0,0.0,88,0.00,,,0.00,Wunderground v.1.15,2013-02-14 05:20:00,
2013-02-14 00:25:00,24.2,21.2,29.95,South,169,0.0,0.0,88,0.00,,,0.00,Wunderground v.1.15,2013-02-14 05:25:00,
2013-02-14 00:30:00,24.3,21.3,29.95,South,169,0.0,0.0,88,0.00,,,0.00,Wunderground v.1.15,2013-02-14 05:30:00,
2013-02-14 00:35:00,24.3,21.3,29.95,South,169,0.0,0.0,88,0.00,,,0.00,Wunderground v.1.15,2013-02-14 05:35:00,
2013-02-14 00:44:00,23.6,20.3,29.95,South,169,0.0,0.0,87,0.00,,,0.00,Wunderground v.1.15,2013-02-14 05:44:00,
2013-02-14 00:49:00,23.4,20.4,29.95,South,169,0.0,0.0,88,0.00,,,0.00,Wunderground v.1.15,2013-02-14 05:49:00,
2013-02-14 00:54:00,23.3,20.5,29.95,South,169,0.0,0.0,89,0.00,,,0.00,Wunderground v.1.15,2013-02-14 05:54:00,
2013-02-14 01:00:00,23.1,20.3,29.95,South,169,0.0,0.0,89,0.00,,,0.00,Wunderground v.1.15,2013-02-14 06:00:00,
2013-02-14 01:09:00,23.1,20.6,29.96,South,169,0.0,0.0,90,0.00,,,0.00,Wunderground v.1.15,2013-02-14 06:09:00,
2013-02-14 01:14:00,23.1,20.9,29.96,South,169,0.0,0.0,91,0.00,,,0.00,Wunderground v.1.15,2013-02-14 06:14:00,
2013-02-14 01:19:00,23.1,20.9,29.96,South,169,0.0,0.0,91,0.00,,,0.00,Wunderground v.1.15,2013-02-14 06:19:00,
2013-02-14 01:25:00,23.2,21.0,29.96,South,169,0.0,0.0,91,0.00,,,0.00,Wunderground v.1.15,2013-02-14 06:25:00,
2013-02-14 01:30:00,23.3,21.1,29.96,South,169,0.0,0.0,91,0.00,,,0.00,Wunderground v.1.15,2013-02-14 06:30:00,
2013-02-14 01:39:00,23.3,21.1,29.97,South,169,0.0,0.0,91,0.00,,,0.00,Wunderground v.1.15,2013-02-14 06:39:00,
2013-02-14 01:44:00,23.5,21.5,29.97,South,169,0.0,0.0,92,0.00,,,0.00,Wunderground v.1.15,2013-02-14 06:44:00,
2013-02-14 01:49:00,23.9,21.9,29.97,South,169,0.0,0.0,92,0.00,,,0.00,Wunderground v.1.15,2013-02-14 06:49:00,
2013-02-14 01:54:00,24.1,22.1,29.98,South,169,0.0,0.0,92,0.00,,,0.00,Wunderground v.1.15,2013-02-14 06:54:00,
2013-02-14 02:00:00,24.2,22.2,29.98,South,169,0.0,1.0,92,0.00,,,0.00,Wunderground v.1.15,2013-02-14 07:00:00,
2013-02-14 02:09:00,24.6,22.6,29.98,South,169,0.0,1.0,92,0.00,,,0.00,Wunderground v.1.15,2013-02-14 07:09:00,
2013-02-14 02:14:00,24.7,22.7,29.99,South,169,1.0,1.0,92,0.00,,,0.00,Wunderground v.1.15,2013-02-14 07:14:00,
2013-02-14 02:19:00,24.8,22.8,29.98,South,169,1.0,1.0,92,0.00,,,0.00,Wunderground v.1.15,2013-02-14 07:19:00,
2013-02-14 02:25:00,24.9,22.9,29.99,South,169,0.0,1.0,92,0.00,,,0.00,Wunderground v.1.15,2013-02-14 07:25:00,
2013-02-14 02:30:00,24.9,22.9,29.99,South,169,0.0,0.0,92,0.00,,,0.00,Wunderground v.1.15,2013-02-14 07:30:00,
2013-02-14 02:35:00,25.0,23.0,29.99,South,169,0.0,0.0,92,0.00,,,0.00,Wunderground v.1.15,2013-02-14 07:35:00,
2013-02-14 02:40:00,25.1,23.1,29.99,South,169,0.0,0.0,92,0.00,,,0.00,Wunderground v.1.15,2013-02-14 07:40:00,
2013-02-14 02:49:00,25.2,23.2,29.99,South,169,0.0,0.0,92,0.00,,,0.00,Wunderground v.1.15,2013-02-14 07:49:00,
2013-02-14 02:54:00,25.3,23.3,29.99,South,169,0.0,0.0,92,0.00,,,0.00,Wunderground v.1.15,2013-02-14 07:54:00,
2013-02-14 03:00:00,25.4,23.4,29.99,South,169,0.0,0.0,92,0.00,,,0.00,Wunderground v.1.15,2013-02-14 08:00:00,
2013-02-14 03:09:00,25.6,23.6,29.99,South,169,0.0,0.0,92,0.00,,,0.00,Wunderground v.1.15,2013-02-14 08:09:00,
2013-02-14 03:19:00,25.7,23.7,30.00,South,169,0.0,0.0,92,0.00,,,0.00,Wunderground v.1.15,2013-02-14 08:19:00,
2013-02-14 03:24:00,25.7,23.7,30.00,South,169,0.0,0.0,92,0.00,,,0.00,Wunderground v.1.15,2013-02-14 08:24:00,
2013-02-14 03:29:00,25.8,23.8,30.00,South,169,0.0,0.0,92,0.00,,,0.00,Wunderground v.1.15,2013-02-14 08:29:00,
2013-02-14 03:35:00,25.8,23.8,30.00,South,169,0.0,0.0,92,0.00,,,0.00,Wunderground v.1.15,2013-02-14 08:35:00,
2013-02-14 03:40:00,25.9,23.9,30.00,South,169,0.0,0.0,92,0.00,,,0.00,Wunderground v.1.15,2013-02-14 08:40:00,
2013-02-14 03:45:00,26.1,24.1,30.00,South,169,1.0,1.0,92,0.00,,,0.00,Wunderground v.1.15,2013-02-14 08:45:00,
2013-02-14 03:55:00,26.2,24.2,30.00,South,169,0.0,0.0,92,0.00,,,0.00,Wunderground v.1.15,2013-02-14 08:55:00,
2013-02-14 04:00:00,26.4,24.1,30.00,South,169,0.0,0.0,91,0.00,,,0.00,Wunderground v.1.15,2013-02-14 09:00:00,
2013-02-14 04:09:00,26.6,24.3,30.01,WNW,291,1.0,4.0,91,0.00,,,0.00,Wunderground v.1.15,2013-02-14 09:09:00,
2013-02-14 04:14:00,26.7,24.2,30.01,WNW,300,2.0,4.0,90,0.00,,,0.00,Wunderground v.1.15,2013-02-14 09:14:00,
2013-02-14 04:19:00,26.7,24.2,30.01,WNW,300,2.0,2.0,90,0.00,,,0.00,Wunderground v.1.15,2013-02-14 09:19:00,
2013-02-14 04:29:00,26.8,24.3,30.01,WNW,301,2.0,3.0,90,0.00,,,0.00,Wunderground v.1.15,2013-02-14 09:29:00,
2013-02-14 04:34:00,26.9,24.4,30.02,WNW,301,3.0,3.0,90,0.00,,,0.00,Wunderground v.1.15,2013-02-14 09:34:00,
2013-02-14 04:39:00,27.0,24.5,30.02,WNW,301,2.0,2.0,90,0.00,,,0.00,Wunderground v.1.15,2013-02-14 09:39:00,
2013-02-14 04:44:00,27.0,24.5,30.02,WNW,302,2.0,3.0,90,0.00,,,0.00,Wunderground v.1.15,2013-02-14 09:44:00,
2013-02-14 04:50:00,27.1,24.6,30.02,NW,304,3.0,4.0,90,0.00,,,0.00,Wunderground v.1.15,2013-02-14 09:50:00,
2013-02-14 05:00:00,27.2,24.7,30.02,NW,304,3.0,3.0,90,0.00,,,0.00,Wunderground v.1.15,2013-02-14 10:00:00,
2013-02-14 05:09:00,27.2,24.7,30.02,NW,304,2.0,2.0,90,0.00,,,0.00,Wunderground v.1.15,2013-02-14 10:09:00,
2013-02-14 05:14:00,27.3,24.5,30.03,NW,304,2.0,2.0,89,0.00,,,0.00,Wunderground v.1.15,2013-02-14 10:14:00,
2013-02-14 05:19:00,27.3,24.5,30.03,NW,304,1.0,1.0,89,0.00,,,0.00,Wunderground v.1.15,2013-02-14 10:19:00,
2013-02-14 05:24:00,27.3,24.5,30.03,NW,304,1.0,2.0,89,0.00,,,0.00,Wunderground v.1.15,2013-02-14 10:24:00,
2013-02-14 05:34:00,27.5,24.7,30.03,NW,304,2.0,2.0,89,0.00,,,0.00,Wunderground v.1.15,2013-02-14 10:34:00,
2013-02-14 05:39:00,27.5,24.7,30.03,NW,304,3.0,3.0,89,0.00,,,0.00,Wunderground v.1.15,2013-02-14 10:39:00,
2013-02-14 05:44:00,27.6,24.5,30.03,NW,304,2.0,3.0,88,0.00,,,0.00,Wunderground v.1.15,2013-02-14 10:44:00,
2013-02-14 05:50:00,27.6,24.5,30.04,NW,304,1.0,2.0,88,0.00,,,0.00,Wunderground v.1.15,2013-02-14 10:50:00,
2013-02-14 06:00:00,27.7,24.6,30.04,NW,304,3.0,3.0,88,0.00,,,0.00,Wunderground v.1.15,2013-02-14 11:00:00,
2013-02-14 06:09:00,27.7,24.6,30.04,NW,304,3.0,4.0,88,0.00,,,0.00,Wunderground v.1.15,2013-02-14 11:09:00,
2013-02-14 06:14:00,27.8,24.7,30.04,NW,304,3.0,4.0,88,0.00,,,0.00,Wunderground v.1.15,2013-02-14 11:14:00,
2013-02-14 06:20:00,27.8,24.7,30.04,NW,304,2.0,2.0,88,0.00,,,0.00,Wunderground v.1.15,2013-02-14 11:20:00,
2013-02-14 06:25:00,27.8,24.7,30.04,NW,304,2.0,2.0,88,0.00,,,0.00,Wunderground v.1.15,2013-02-14 11:25:00,
2013-02-14 06:30:00,27.8,24.7,30.05,NW,304,2.0,3.0,88,0.00,,,0.00,Wunderground v.1.15,2013-02-14 11:30:00,
2013-02-14 06:35:00,27.9,24.8,30.05,NW,304,3.0,3.0,88,0.00,,,0.00,Wunderground v.1.15,2013-02-14 11:35:00,
2013-02-14 06:40:00,27.9,24.8,30.05,NW,304,3.0,3.0,88,0.00,,,0.00,Wunderground v.1.15,2013-02-14 11:40:00,
2013-02-14 06:49:00,27.9,24.8,30.06,NW,304,3.0,4.0,88,0.00,,,0.00,Wunderground v.1.15,2013-02-14 11:49:00,
2013-02-14 06:54:00,28.0,24.9,30.06,NW,304,3.0,4.0,88,0.00,,,0.00,Wunderground v.1.15,2013-02-14 11:54:00,
2013-02-14 07:00:00,28.0,24.6,30.06,NW,309,3.0,4.0,87,0.00,,,0.00,Wunderground v.1.15,2013-02-14 12:00:00,
2013-02-14 07:09:00,28.2,24.8,30.07,NW,325,5.0,5.0,87,0.00,,,0.00,Wunderground v.1.15,2013-02-14 12:09:00,
2013-02-14 07:19:00,28.2,24.8,30.07,NW,325,3.0,3.0,87,0.00,,,0.00,Wunderground v.1.15,2013-02-14 12:19:00,
2013-02-14 07:24:00,28.2,24.8,30.07,NW,325,3.0,5.0,87,0.00,,,0.00,Wunderground v.1.15,2013-02-14 12:24:00,
2013-02-14 07:30:00,28.2,24.8,30.08,NW,323,4.0,4.0,87,0.00,,,0.00,Wunderground v.1.15,2013-02-14 12:30:00,
2013-02-14 07:35:00,28.2,25.1,30.08,NW,323,4.0,4.0,88,0.00,,,0.00,Wunderground v.1.15,2013-02-14 12:35:00,
2013-02-14 07:44:00,28.3,25.2,30.08,NW,310,4.0,4.0,88,0.00,,,0.00,Wunderground v.1.15,2013-02-14 12:44:00,
2013-02-14 07:54:00,28.5,25.1,30.08,NW,315,4.0,4.0,87,0.00,,,0.00,Wunderground v.1.15,2013-02-14 12:54:00,
2013-02-14 08:00:00,28.6,25.2,30.09,NW,314,4.0,5.0,87,0.00,,,0.00,Wunderground v.1.15,2013-02-14 13:00:00,
2013-02-14 08:09:00,28.8,25.4,30.09,WNW,296,4.0,5.0,87,0.00,,,0.00,Wunderground v.1.15,2013-02-14 13:09:00,
2013-02-14 08:15:00,28.9,25.5,30.09,WNW,292,4.0,5.0,87,0.00,,,0.00,Wunderground v.1.15,2013-02-14 13:15:00,
2013-02-14 08:25:00,29.1,25.7,30.09,WNW,302,3.0,4.0,87,0.00,,,0.00,Wunderground v.1.15,2013-02-14 13:25:00,
2013-02-14 08:30:00,29.2,25.5,30.09,WNW,298,4.0,5.0,86,0.00,,,0.00,Wunderground v.1.15,2013-02-14 13:30:00,
2013-02-14 08:35:00,29.4,26.0,30.09,NW,317,5.0,7.0,87,0.00,,,0.00,Wunderground v.1.15,2013-02-14 13:35:00,
2013-02-14 08:45:00,29.4,25.4,30.09,WNW,295,6.0,6.0,85,0.00,,,0.00,Wunderground v.1.15,2013-02-14 13:45:00,
2013-02-14 08:50:00,29.4,25.2,30.09,NNW,335,6.0,6.0,84,0.00,,,0.00,Wunderground v.1.15,2013-02-14 13:50:00,
2013-02-14 09:00:00,29.4,25.2,30.10,NW,325,5.0,6.0,84,0.00,,,0.00,Wunderground v.1.15,2013-02-14 14:00:00,
2013-02-14 09:09:00,29.4,25.2,30.10,NW,309,6.0,6.0,84,0.00,,,0.00,Wunderground v.1.15,2013-02-14 14:09:00,
2013-02-14 09:14:00,29.4,24.9,30.10,NW,321,7.0,7.0,83,0.00,,,0.00,Wunderground v.1.15,2013-02-14 14:14:00,
2013-02-14 09:19:00,29.5,25.0,30.10,NW,311,7.0,8.0,83,0.00,,,0.00,Wunderground v.1.15,2013-02-14 14:19:00,
2013-02-14 09:24:00,29.4,24.9,30.10,NW,306,6.0,8.0,83,0.00,,,0.00,Wunderground v.1.15,2013-02-14 14:24:00,
2013-02-14 09:29:00,29.5,25.0,30.10,WNW,296,5.0,5.0,83,0.00,,,0.00,Wunderground v.1.15,2013-02-14 14:29:00,
2013-02-14 09:35:00,29.6,25.1,30.10,NW,306,5.0,5.0,83,0.00,,,0.00,Wunderground v.1.15,2013-02-14 14:35:00,
2013-02-14 09:44:00,29.9,25.1,30.10,NW,317,4.0,4.0,82,0.00,,,0.00,Wunderground v.1.15,2013-02-14 14:44:00,
2013-02-14 09:49:00,30.1,25.3,30.10,WNW,286,4.0,4.0,82,0.00,,,0.00,Wunderground v.1.15,2013-02-14 14:49:00,
2013-02-14 09:54:00,30.1,25.3,30.10,WNW,301,3.0,4.0,82,0.00,,,0.00,Wunderground v.1.15,2013-02-14 14:54:00,
2013-02-14 10:00:00,30.3,25.5,30.10,West,262,4.0,4.0,82,0.00,,,0.00,Wunderground v.1.15,2013-02-14 15:00:00,
2013-02-14 10:09:00,30.5,25.4,30.10,West,279,4.0,4.0,81,0.00,,,0.00,Wunderground v.1.15,2013-02-14 15:09:00,
2013-02-14 10:14:00,30.5,25.1,30.10,WSW,244,4.0,4.0,80,0.00,,,0.00,Wunderground v.1.15,2013-02-14 15:14:00,
2013-02-14 10:19:00,30.7,25.3,30.10,West,269,4.0,4.0,80,0.00,,,0.00,Wunderground v.1.15,2013-02-14 15:19:00,
2013-02-14 10:25:00,30.6,25.5,30.10,West,281,4.0,4.0,81,0.00,,,0.00,Wunderground v.1.15,2013-02-14 15:25:00,
2013-02-14 10:30:00,30.8,25.7,30.09,WSW,254,4.0,4.0,81,0.00,,,0.00,Wunderground v.1.15,2013-02-14 15:30:00,
2013-02-14 10:39:00,30.5,25.1,30.09,WSW,252,4.0,4.0,80,0.00,,,0.00,Wunderground v.1.15,2013-02-14 15:39:00,
2013-02-14 10:44:00,30.7,25.6,30.09,WNW,290,5.0,5.0,81,0.00,,,0.00,Wunderground v.1.15,2013-02-14 15:44:00,
2013-02-14 10:49:00,30.7,25.3,30.09,West,263,4.0,4.0,80,0.00,,,0.00,Wunderground v.1.15,2013-02-14 15:49:00,
2013-02-14 10:54:00,30.8,25.1,30.09,WSW,244,4.0,8.0,79,0.00,,,0.00,Wunderground v.1.15,2013-02-14 15:54:00,
2013-02-14 11:00:00,30.8,25.1,30.09,WNW,300,5.0,7.0,79,0.00,,,0.00,Wunderground v.1.15,2013-02-14 16:00:00,
2013-02-14 11:10:00,32.0,26.2,30.09,South,187,3.0,3.0,79,0.00,,,0.00,Wunderground v.1.15,2013-02-14 16:10:00,
2013-02-14 11:20:00,32.2,25.8,30.09,WSW,242,4.0,5.0,77,0.00,,,0.00,Wunderground v.1.15,2013-02-14 16:20:00,
2013-02-14 11:29:00,33.2,26.8,30.08,SSW,208,2.0,7.0,77,0.00,,,0.00,Wunderground v.1.15,2013-02-14 16:29:00,
2013-02-14 11:34:00,32.5,25.5,30.08,WSW,252,3.0,7.0,75,0.00,,,0.00,Wunderground v.1.15,2013-02-14 16:34:00,
2013-02-14 11:39:00,32.7,26.3,30.07,WSW,240,4.0,11.0,77,0.00,,,0.00,Wunderground v.1.15,2013-02-14 16:39:00,
2013-02-14 11:44:00,32.9,26.5,30.07,SW,228,4.0,11.0,77,0.00,,,0.00,Wunderground v.1.15,2013-02-14 16:44:00,
2013-02-14 11:54:00,33.4,26.3,30.07,SW,222,3.0,3.0,75,0.00,,,0.00,Wunderground v.1.15,2013-02-14 16:54:00,
2013-02-14 12:00:00,33.4,26.3,30.07,SW,235,3.0,3.0,75,0.00,,,0.00,Wunderground v.1.15,2013-02-14 17:00:00,
2013-02-14 12:10:00,34.1,27.0,30.07,WSW,243,2.0,2.0,75,0.00,,,0.00,Wunderground v.1.15,2013-02-14 17:10:00,
2013-02-14 12:19:00,34.2,27.1,30.06,SW,234,3.0,7.0,75,0.00,,,0.00,Wunderground v.1.15,2013-02-14 17:19:00,
2013-02-14 12:29:00,34.5,27.1,30.06,WSW,258,2.0,5.0,74,0.00,,,0.00,Wunderground v.1.15,2013-02-14 17:29:00,
2013-02-14 12:34:00,34.3,26.9,30.06,SW,223,3.0,5.0,74,0.00,,,0.00,Wunderground v.1.15,2013-02-14 17:34:00,
2013-02-14 12:39:00,34.7,27.3,30.05,SSW,202,2.0,2.0,74,0.00,,,0.00,Wunderground v.1.15,2013-02-14 17:39:00,
2013-02-14 12:44:00,34.8,26.7,30.05,WSW,248,3.0,3.0,72,0.00,,,0.00,Wunderground v.1.15,2013-02-14 17:44:00,
2013-02-14 12:49:00,34.9,26.8,30.05,WSW,244,4.0,4.0,72,0.00,,,0.00,Wunderground v.1.15,2013-02-14 17:49:00,
2013-02-14 13:00:00,35.2,27.1,30.04,WSW,244,3.0,6.0,72,0.00,,,0.00,Wunderground v.1.15,2013-02-14 18:00:00,
2013-02-14 13:10:00,35.2,27.4,30.04,SSW,199,4.0,4.0,73,0.00,,,0.00,Wunderground v.1.15,2013-02-14 18:10:00,
2013-02-14 13:15:00,35.3,27.8,30.03,SSW,197,3.0,4.0,74,0.00,,,0.00,Wunderground v.1.15,2013-02-14 18:15:00,
2013-02-14 13:24:00,35.3,27.5,30.03,WSW,241,4.0,5.0,73,0.00,,,0.00,Wunderground v.1.15,2013-02-14 18:24:00,
2013-02-14 13:34:00,35.9,27.4,30.03,SSW,195,4.0,4.0,71,0.00,,,0.00,Wunderground v.1.15,2013-02-14 18:34:00,
2013-02-14 13:40:00,36.2,28.0,30.03,WSW,246,3.0,3.0,72,0.00,,,0.00,Wunderground v.1.15,2013-02-14 18:40:00,
2013-02-14 13:45:00,36.5,28.0,30.03,SSW,209,3.0,7.0,71,0.00,,,0.00,Wunderground v.1.15,2013-02-14 18:45:00,
2013-02-14 13:54:00,36.9,28.4,30.02,SSW,198,3.0,4.0,71,0.00,,,0.00,Wunderground v.1.15,2013-02-14 18:54:00,
2013-02-14 14:00:00,37.3,28.8,30.02,SSW,213,2.0,5.0,71,0.00,,,0.00,Wunderground v.1.15,2013-02-14 19:00:00,
2013-02-14 14:09:00,37.8,28.5,30.02,WSW,242,2.0,2.0,69,0.00,,,0.00,Wunderground v.1.15,2013-02-14 19:09:00,
2013-02-14 14:14:00,37.7,28.1,30.01,SW,214,3.0,3.0,68,0.00,,,0.00,Wunderground v.1.15,2013-02-14 19:14:00,
2013-02-14 14:19:00,37.5,27.5,30.02,WSW,245,4.0,4.0,67,0.00,,,0.00,Wunderground v.1.15,2013-02-14 19:19:00,
2013-02-14 14:24:00,37.7,28.1,30.01,WSW,254,3.0,4.0,68,0.00,,,0.00,Wunderground v.1.15,2013-02-14 19:24:00,
2013-02-14 14:30:00,37.9,28.3,30.01,WSW,248,4.0,6.0,68,0.00,,,0.00,Wunderground v.1.15,2013-02-14 19:30:00,
2013-02-14 14:35:00,37.9,28.3,30.01,SSW,200,3.0,6.0,68,0.00,,,0.00,Wunderground v.1.15,2013-02-14 19:35:00,
2013-02-14 14:40:00,37.7,27.7,30.01,SSW,209,3.0,8.0,67,0.00,,,0.00,Wunderground v.1.15,2013-02-14 19:40:00,
2013-02-14 14:45:00,37.6,28.0,30.01,SSW,198,3.0,8.0,68,0.00,,,0.00,Wunderground v.1.15,2013-02-14 19:45:00,
2013-02-14 14:55:00,37.6,28.0,30.00,SSW,206,4.0,7.0,68,0.00,,,0.00,Wunderground v.1.15,2013-02-14 19:55:00,
2013-02-14 15:00:00,37.8,28.2,30.01,SSW,206,3.0,3.0,68,0.00,,,0.00,Wunderground v.1.15,2013-02-14 20:00:00,
2013-02-14 15:09:00,38.0,27.6,30.01,SW,236,4.0,4.0,66,0.00,,,0.00,Wunderground v.1.15,2013-02-14 20:09:00,
2013-02-14 15:19:00,38.2,27.1,30.01,SSW,200,5.0,5.0,64,0.00,,,0.00,Wunderground v.1.15,2013-02-14 20:19:00,
2013-02-14 15:24:00,38.2,27.8,30.00,SSW,205,4.0,5.0,66,0.00,,,0.00,Wunderground v.1.15,2013-02-14 20:24:00,
2013-02-14 15:29:00,38.2,27.8,30.00,SSW,211,2.0,4.0,66,0.00,,,0.00,Wunderground v.1.15,2013-02-14 20:29:00,
2013-02-14 15:34:00,38.1,28.1,30.00,SSW,202,2.0,4.0,67,0.00,,,0.00,Wunderground v.1.15,2013-02-14 20:34:00,
2013-02-14 15:39:00,37.9,28.3,30.00,SSW,209,3.0,3.0,68,0.00,,,0.00,Wunderground v.1.15,2013-02-14 20:39:00,
2013-02-14 15:44:00,38.0,28.0,30.00,SSW,193,4.0,4.0,67,0.00,,,0.00,Wunderground v.1.15,2013-02-14 20:44:00,
2013-02-14 15:54:00,38.6,28.6,30.00,SSW,207,2.0,2.0,67,0.00,,,0.00,Wunderground v.1.15,2013-02-14 20:54:00,
2013-02-14 16:00:00,39.2,29.2,30.00,SSW,207,3.0,3.0,67,0.00,,,0.00,Wunderground v.1.15,2013-02-14 21:00:00,
2013-02-14 16:10:00,39.4,29.0,30.00,SSW,202,1.0,3.0,66,0.00,,,0.00,Wunderground v.1.15,2013-02-14 21:10:00,
2013-02-14 16:15:00,39.1,28.7,30.00,SW,236,1.0,3.0,66,0.00,,,0.00,Wunderground v.1.15,2013-02-14 21:15:00,
2013-02-14 16:25:00,39.1,27.9,30.00,WSW,242,3.0,5.0,64,0.00,,,0.00,Wunderground v.1.15,2013-02-14 21:25:00,
2013-02-14 16:30:00,39.1,27.9,30.00,WSW,242,3.0,6.0,64,0.00,,,0.00,Wunderground v.1.15,2013-02-14 21:30:00,
2013-02-14 16:35:00,39.1,27.6,30.01,WSW,248,3.0,6.0,63,0.00,,,0.00,Wunderground v.1.15,2013-02-14 21:35:00,
2013-02-14 16:40:00,39.2,27.7,30.01,WSW,257,4.0,10.0,63,0.00,,,0.00,Wunderground v.1.15,2013-02-14 21:40:00,
2013-02-14 16:49:00,39.6,28.4,30.01,WSW,242,8.0,8.0,64,0.00,,,0.00,Wunderground v.1.15,2013-02-14 21:49:00,
2013-02-14 17:00:00,39.2,28.8,30.02,West,270,8.0,8.0,66,0.00,,,0.00,Wunderground v.1.15,2013-02-14 22:00:00,
2013-02-14 17:10:00,38.7,29.4,30.02,WSW,255,5.0,5.0,69,0.00,,,0.00,Wunderground v.1.15,2013-02-14 22:10:00,
2013-02-14 17:15:00,38.2,30.6,30.02,WSW,240,7.0,7.0,74,0.00,,,0.00,Wunderground v.1.15,2013-02-14 22:15:00,
2013-02-14 17:24:00,37.3,31.7,30.02,WSW,241,7.0,8.0,80,0.00,,,0.00,Wunderground v.1.15,2013-02-14 22:24:00,
2013-02-14 17:34:00,36.5,32.1,30.02,WSW,252,8.0,8.0,84,0.00,,,0.00,Wunderground v.1.15,2013-02-14 22:34:00,
2013-02-14 17:39:00,36.2,32.1,30.02,WSW,250,5.0,5.0,85,0.00,,,0.00,Wunderground v.1.15,2013-02-14 22:39:00,
2013-02-14 17:44:00,35.9,32.1,30.02,SSW,202,5.0,8.0,86,0.00,,,0.00,Wunderground v.1.15,2013-02-14 22:44:00,
2013-02-14 17:49:00,35.7,32.2,30.02,SW,217,6.0,6.0,87,0.00,,,0.00,Wunderground v.1.15,2013-02-14 22:49:00,
2013-02-14 17:54:00,35.4,32.2,30.02,SW,232,5.0,9.0,88,0.00,,,0.00,Wunderground v.1.15,2013-02-14 22:54:00,
2013-02-14 18:00:00,35.2,32.3,30.02,WSW,238,5.0,5.0,89,0.00,,,0.00,Wunderground v.1.15,2013-02-14 23:00:00,
2013-02-14 18:10:00,35.1,32.7,30.02,WSW,246,6.0,6.0,91,0.00,,,0.00,Wunderground v.1.15,2013-02-14 23:10:00,
2013-02-14 18:15:00,35.0,32.6,30.02,SW,236,5.0,6.0,91,0.00,,,0.00,Wunderground v.1.15,2013-02-14 23:15:00,
2013-02-14 18:24:00,35.1,32.7,30.03,WSW,238,4.0,5.0,91,0.00,,,0.00,Wunderground v.1.15,2013-02-14 23:24:00,
2013-02-14 18:29:00,35.0,32.9,30.03,WSW,255,5.0,9.0,92,0.00,,,0.01,Wunderground v.1.15,2013-02-14 23:29:00,
2013-02-14 18:34:00,35.0,32.9,30.03,WSW,239,5.0,9.0,92,0.00,,,0.01,Wunderground v.1.15,2013-02-14 23:34:00,
2013-02-14 18:44:00,34.8,32.7,30.02,WSW,245,5.0,7.0,92,0.00,,,0.01,Wunderground v.1.15,2013-02-14 23:44:00,
2013-02-14 18:49:00,34.7,32.6,30.02,WSW,242,5.0,5.0,92,0.00,,,0.01,Wunderground v.1.15,2013-02-14 23:49:00,
2013-02-14 18:54:00,34.6,32.8,30.02,WSW,238,5.0,5.0,93,0.00,,,0.01,Wunderground v.1.15,2013-02-14 23:54:00,
2013-02-14 19:00:00,34.5,32.7,30.02,SW,216,4.0,4.0,93,0.00,,,0.01,Wunderground v.1.15,2013-02-15 00:00:00,
2013-02-14 19:10:00,34.4,32.6,30.02,WSW,240,3.0,6.0,93,0.00,,,0.02,Wunderground v.1.15,2013-02-15 00:10:00,
2013-02-14 19:15:00,34.6,33.1,30.02,WSW,244,3.0,6.0,94,0.00,,,0.02,Wunderground v.1.15,2013-02-15 00:15:00,
2013-02-14 19:24:00,34.7,32.9,30.02,WSW,243,4.0,4.0,93,0.00,,,0.02,Wunderground v.1.15,2013-02-15 00:24:00,
2013-02-14 19:29:00,34.8,33.0,30.02,WSW,240,4.0,8.0,93,0.00,,,0.02,Wunderground v.1.15,2013-02-15 00:29:00,
2013-02-14 19:34:00,35.0,33.2,30.02,SW,224,5.0,8.0,93,0.00,,,0.02,Wunderground v.1.15,2013-02-15 00:34:00,
2013-02-14 19:39:00,35.1,33.3,30.02,WSW,248,7.0,7.0,93,0.00,,,0.02,Wunderground v.1.15,2013-02-15 00:39:00,
2013-02-14 19:49:00,35.0,33.2,30.02,SW,236,7.0,7.0,93,0.00,,,0.03,Wunderground v.1.15,2013-02-15 00:49:00,
2013-02-14 19:55:00,35.0,33.2,30.02,SSW,213,6.0,7.0,93,0.00,,,0.03,Wunderground v.1.15,2013-02-15 00:55:00,
2013-02-14 20:00:00,35.0,33.2,30.02,WSW,243,6.0,7.0,93,0.00,,,0.03,Wunderground v.1.15,2013-02-15 01:00:00,
2013-02-14 20:09:00,35.2,33.4,30.02,SW,230,6.0,8.0,93,0.00,,,0.03,Wunderground v.1.15,2013-02-15 01:09:00,
2013-02-14 20:14:00,35.3,33.2,30.02,WSW,243,8.0,8.0,92,0.00,,,0.03,Wunderground v.1.15,2013-02-15 01:14:00,
2013-02-14 20:24:00,35.3,33.2,30.02,West,263,6.0,11.0,92,0.00,,,0.03,Wunderground v.1.15,2013-02-15 01:24:00,
2013-02-14 20:29:00,35.4,33.3,30.01,WSW,240,6.0,8.0,92,0.00,,,0.03,Wunderground v.1.15,2013-02-15 01:29:00,
2013-02-14 20:34:00,35.5,33.4,30.01,SW,228,8.0,8.0,92,0.00,,,0.03,Wunderground v.1.15,2013-02-15 01:34:00,
2013-02-14 20:39:00,35.6,33.5,30.01,WSW,248,9.0,11.0,92,0.00,,,0.03,Wunderground v.1.15,2013-02-15 01:39:00,
2013-02-14 20:44:00,35.6,33.2,30.01,WSW,254,9.0,13.0,91,0.00,,,0.03,Wunderground v.1.15,2013-02-15 01:44:00,
2013-02-14 20:49:00,35.6,33.2,30.01,WSW,241,8.0,14.0,91,0.00,,,0.03,Wunderground v.1.15,2013-02-15 01:49:00,
2013-02-14 21:00:00,35.7,33.3,30.01,SW,221,10.0,10.0,91,0.00,,,0.03,Wunderground v.1.15,2013-02-15 02:00:00,
2013-02-14 21:09:00,35.7,33.3,30.01,SW,224,10.0,10.0,91,0.00,,,0.04,Wunderground v.1.15,2013-02-15 02:09:00,
2013-02-14 21:14:00,35.7,33.3,30.01,SW,228,9.0,10.0,91,0.00,,,0.04,Wunderground v.1.15,2013-02-15 02:14:00,
2013-02-14 21:19:00,35.7,33.3,30.02,West,264,8.0,10.0,91,0.00,,,0.04,Wunderground v.1.15,2013-02-15 02:19:00,
2013-02-14 21:24:00,35.7,33.3,30.01,WSW,252,9.0,11.0,91,0.00,,,0.04,Wunderground v.1.15,2013-02-15 02:24:00,
2013-02-14 21:34:00,35.7,33.3,30.02,WSW,249,9.0,13.0,91,0.00,,,0.04,Wunderground v.1.15,2013-02-15 02:34:00,
2013-02-14 21:39:00,35.8,33.2,30.01,WSW,240,10.0,10.0,90,0.00,,,0.04,Wunderground v.1.15,2013-02-15 02:39:00,
2013-02-14 21:44:00,35.9,33.3,30.01,WSW,244,10.0,10.0,90,0.00,,,0.04,Wunderground v.1.15,2013-02-15 02:44:00,
2013-02-14 21:49:00,36.0,33.4,30.01,WSW,240,10.0,11.0,90,0.00,,,0.04,Wunderground v.1.15,2013-02-15 02:49:00,
2013-02-14 21:55:00,36.0,33.1,30.01,West,261,9.0,11.0,89,0.00,,,0.04,Wunderground v.1.15,2013-02-15 02:55:00,
2013-02-14 22:04:00,36.1,33.2,30.01,WSW,246,8.0,12.0,89,0.00,,,0.04,Wunderground v.1.15,2013-02-15 03:04:00,
2013-02-14 22:09:00,36.1,33.2,30.01,WSW,244,8.0,8.0,89,0.00,,,0.04,Wunderground v.1.15,2013-02-15 03:09:00,
2013-02-14 22:14:00,36.0,33.1,30.01,WSW,242,8.0,9.0,89,0.00,,,0.04,Wunderground v.1.15,2013-02-15 03:14:00,
2013-02-14 22:19:00,35.8,32.9,30.01,WSW,238,7.0,7.0,89,0.00,,,0.04,Wunderground v.1.15,2013-02-15 03:19:00,
2013-02-14 22:24:00,35.4,32.8,30.00,WSW,252,7.0,7.0,90,0.00,,,0.04,Wunderground v.1.15,2013-02-15 03:24:00,
2013-02-14 22:29:00,35.1,32.7,30.00,SW,235,6.0,6.0,91,0.00,,,0.05,Wunderground v.1.15,2013-02-15 03:29:00,
2013-02-14 22:39:00,34.9,32.8,30.00,SW,227,7.0,7.0,92,0.00,,,0.05,Wunderground v.1.15,2013-02-15 03:39:00,
2013-02-14 22:44:00,35.0,32.9,30.00,WSW,254,7.0,7.0,92,0.00,,,0.05,Wunderground v.1.15,2013-02-15 03:44:00,
2013-02-14 22:50:00,35.0,32.9,30.00,SW,232,7.0,7.0,92,0.00,,,0.06,Wunderground v.1.15,2013-02-15 03:50:00,
2013-02-14 22:59:00,34.6,32.8,29.99,SW,229,6.0,6.0,93,0.00,,,0.06,Wunderground v.1.15,2013-02-15 03:59:00,
2013-02-14 23:09:00,34.5,32.7,29.99,South,183,7.0,8.0,93,0.00,,,0.06,Wunderground v.1.15,2013-02-15 04:09:00,
2013-02-14 23:14:00,34.5,33.0,29.99,SW,225,8.0,8.0,94,0.00,,,0.06,Wunderground v.1.15,2013-02-15 04:14:00,
2013-02-14 23:19:00,34.4,32.9,29.99,WSW,243,9.0,9.0,94,0.00,,,0.06,Wunderground v.1.15,2013-02-15 04:19:00,
2013-02-14 23:24:00,34.3,32.8,29.99,WSW,240,8.0,14.0,94,0.00,,,0.06,Wunderground v.1.15,2013-02-15 04:24:00,
2013-02-14 23:29:00,34.3,32.8,29.99,WSW,238,8.0,10.0,94,0.00,,,0.06,Wunderground v.1.15,2013-02-15 04:29:00,
2013-02-14 23:34:00,34.4,32.9,29.99,SSW,208,8.0,10.0,94,0.00,,,0.06,Wunderground v.1.15,2013-02-15 04:34:00,
2013-02-14 23:39:00,34.7,32.9,29.99,SW,215,8.0,8.0,93,0.00,,,0.06,Wunderground v.1.15,2013-02-15 04:39:00,
2013-02-14 23:49:00,35.0,33.2,29.99,SW,235,8.0,8.0,93,0.00,,,0.06,Wunderground v.1.15,2013-02-15 04:49:00,
2013-02-14 23:55:00,35.0,32.9,29.99,SW,231,7.0,8.0,92,0.00,,,0.06,Wunderground v.1.15,2013-02-15 04:55:00,